sensor_id;sensor_type;location;lat;lon;timestamp;pressure;altitude;pressure_sealevel;temperature;humidity
19890;BME280;10107;51.198;6.824;2023-03-01T00:00:23;-21298.91;;;-0.85;87.92
19890;BME280;10107;51.198;6.824;2023-03-01T00:04:25;-21298.50;;;-0.87;88.08
19890;BME280;10107;51.198;6.824;2023-03-01T00:08:29;-21297.56;;;-0.90;87.80
19890;BME280;10107;51.198;6.824;2023-03-01T00:12:31;-21296.50;;;-0.94;88.64
19890;BME280;10107;51.198;6.824;2023-03-01T00:16:34;-21294.31;;;-1.03;89.06
19890;BME280;10107;51.198;6.824;2023-03-01T00:20:39;-21292.31;;;-1.10;90.34
19890;BME280;10107;51.198;6.824;2023-03-01T00:24:41;-21290.81;;;-1.16;90.14
19890;BME280;10107;51.198;6.824;2023-03-01T00:28:43;-21289.06;;;-1.23;90.99
19890;BME280;10107;51.198;6.824;2023-03-01T00:32:45;-21287.59;;;-1.28;91.45
19890;BME280;10107;51.198;6.824;2023-03-01T00:36:46;-21286.50;;;-1.32;92.21
19890;BME280;10107;51.198;6.824;2023-03-01T00:40:49;-21284.34;;;-1.41;92.56
19890;BME280;10107;51.198;6.824;2023-03-01T00:44:50;-21282.59;;;-1.47;93.82
19890;BME280;10107;51.198;6.824;2023-03-01T00:48:52;-21281.13;;;-1.53;94.70
19890;BME280;10107;51.198;6.824;2023-03-01T00:52:54;-21277.88;;;-1.65;94.50
19890;BME280;10107;51.198;6.824;2023-03-01T00:56:57;-21274.09;;;-1.80;95.86
19890;BME280;10107;51.198;6.824;2023-03-01T01:00:58;-21269.38;;;-1.97;95.73
19890;BME280;10107;51.198;6.824;2023-03-01T01:05:00;-21265.47;;;-2.12;96.59
19890;BME280;10107;51.198;6.824;2023-03-01T01:09:06;-21263.47;;;-2.20;97.52
19890;BME280;10107;51.198;6.824;2023-03-01T01:13:09;-21261.16;;;-2.29;98.37
19890;BME280;10107;51.198;6.824;2023-03-01T01:17:11;-21258.72;;;-2.38;99.34
19890;BME280;10107;51.198;6.824;2023-03-01T01:21:15;-21257.13;;;-2.44;99.78
19890;BME280;10107;51.198;6.824;2023-03-01T01:25:17;-21256.16;;;-2.48;100.00
19890;BME280;10107;51.198;6.824;2023-03-01T01:29:20;-21254.94;;;-2.52;100.00
19890;BME280;10107;51.198;6.824;2023-03-01T01:33:22;-21254.28;;;-2.55;100.00
19890;BME280;10107;51.198;6.824;2023-03-01T01:37:24;-21251.97;;;-2.64;100.00
19890;BME280;10107;51.198;6.824;2023-03-01T01:41:31;-21249.00;;;-2.75;100.00
19890;BME280;10107;51.198;6.824;2023-03-01T01:45:34;-21247.53;;;-2.81;100.00
19890;BME280;10107;51.198;6.824;2023-03-01T01:49:36;-21248.47;;;-2.77;100.00
19890;BME280;10107;51.198;6.824;2023-03-01T01:53:39;-21249.81;;;-2.72;100.00
19890;BME280;10107;51.198;6.824;2023-03-01T01:57:42;-21250.22;;;-2.70;100.00
19890;BME280;10107;51.198;6.824;2023-03-01T02:01:46;-21248.19;;;-2.78;100.00
19890;BME280;10107;51.198;6.824;2023-03-01T02:05:49;-21246.84;;;-2.83;100.00
19890;BME280;10107;51.198;6.824;2023-03-01T02:09:52;-21244.84;;;-2.91;100.00
19890;BME280;10107;51.198;6.824;2023-03-01T02:13:54;-21243.22;;;-2.97;100.00
19890;BME280;10107;51.198;6.824;2023-03-01T02:17:57;-21242.53;;;-3.00;100.00
19890;BME280;10107;51.198;6.824;2023-03-01T02:22:00;-21243.47;;;-2.96;100.00
19890;BME280;10107;51.198;6.824;2023-03-01T02:26:08;-21246.31;;;-2.85;100.00
19890;BME280;10107;51.198;6.824;2023-03-01T02:34:20;-21248.47;;;-2.77;100.00
19890;BME280;10107;51.198;6.824;2023-03-01T02:38:22;-21248.47;;;-2.77;100.00
19890;BME280;10107;51.198;6.824;2023-03-01T02:42:26;-21247.94;;;-2.79;100.00
19890;BME280;10107;51.198;6.824;2023-03-01T02:46:28;-21245.38;;;-2.89;100.00
19890;BME280;10107;51.198;6.824;2023-03-01T02:50:43;-21243.63;;;-2.95;100.00
19890;BME280;10107;51.198;6.824;2023-03-01T02:54:48;-21241.59;;;-3.03;100.00
19890;BME280;10107;51.198;6.824;2023-03-01T02:58:52;-21238.22;;;-3.16;100.00
19890;BME280;10107;51.198;6.824;2023-03-01T03:02:54;-21235.50;;;-3.26;100.00
19890;BME280;10107;51.198;6.824;2023-03-01T03:06:59;-21233.75;;;-3.33;100.00
19890;BME280;10107;51.198;6.824;2023-03-01T03:11:00;-21232.66;;;-3.37;100.00
19890;BME280;10107;51.198;6.824;2023-03-01T03:15:03;-21232.41;;;-3.38;100.00
19890;BME280;10107;51.198;6.824;2023-03-01T03:19:09;-21234.28;;;-3.31;100.00
19890;BME280;10107;51.198;6.824;2023-03-01T03:23:12;-21236.84;;;-3.21;100.00
19890;BME280;10107;51.198;6.824;2023-03-01T03:27:14;-21237.00;;;-3.21;100.00
19890;BME280;10107;51.198;6.824;2023-03-01T03:31:15;-21236.59;;;-3.22;100.00
19890;BME280;10107;51.198;6.824;2023-03-01T03:35:17;-21234.84;;;-3.29;100.00
19890;BME280;10107;51.198;6.824;2023-03-01T03:39:21;-21234.16;;;-3.31;100.00
19890;BME280;10107;51.198;6.824;2023-03-01T03:43:23;-21232.94;;;-3.36;100.00
19890;BME280;10107;51.198;6.824;2023-03-01T03:47:24;-21230.09;;;-3.47;100.00
19890;BME280;10107;51.198;6.824;2023-03-01T03:51:26;-21228.06;;;-3.54;100.00
19890;BME280;10107;51.198;6.824;2023-03-01T03:55:30;-21226.72;;;-3.60;100.00
19890;BME280;10107;51.198;6.824;2023-03-01T03:59:33;-21224.56;;;-3.68;100.00
19890;BME280;10107;51.198;6.824;2023-03-01T04:03:35;-21222.81;;;-3.74;100.00
19890;BME280;10107;51.198;6.824;2023-03-01T04:07:37;-21220.63;;;-3.83;100.00
19890;BME280;10107;51.198;6.824;2023-03-01T04:11:40;-21218.47;;;-3.91;100.00
19890;BME280;10107;51.198;6.824;2023-03-01T04:15:41;-21218.63;;;-3.90;100.00
19890;BME280;10107;51.198;6.824;2023-03-01T04:19:44;-21219.81;;;-3.86;100.00
19890;BME280;10107;51.198;6.824;2023-03-01T04:23:48;-21217.81;;;-3.93;100.00
19890;BME280;10107;51.198;6.824;2023-03-01T04:27:53;-21216.19;;;-4.00;100.00
19890;BME280;10107;51.198;6.824;2023-03-01T04:31:55;-21214.97;;;-4.04;100.00
19890;BME280;10107;51.198;6.824;2023-03-01T04:35:56;-21212.81;;;-4.12;100.00
19890;BME280;10107;51.198;6.824;2023-03-01T04:39:58;-21211.59;;;-4.17;100.00
19890;BME280;10107;51.198;6.824;2023-03-01T04:44:01;-21211.03;;;-4.19;100.00
19890;BME280;10107;51.198;6.824;2023-03-01T04:48:03;-21213.22;;;-4.11;100.00
19890;BME280;10107;51.198;6.824;2023-03-01T04:52:05;-21216.84;;;-3.97;100.00
19890;BME280;10107;51.198;6.824;2023-03-01T04:56:06;-21220.63;;;-3.83;100.00
19890;BME280;10107;51.198;6.824;2023-03-01T05:00:11;-21224.16;;;-3.69;100.00
19890;BME280;10107;51.198;6.824;2023-03-01T05:04:21;-21227.53;;;-3.56;100.00
19890;BME280;10107;51.198;6.824;2023-03-01T05:08:22;-21231.06;;;-3.43;100.00
19890;BME280;10107;51.198;6.824;2023-03-01T05:12:24;-21234.28;;;-3.31;100.00
19890;BME280;10107;51.198;6.824;2023-03-01T05:16:26;-21234.97;;;-3.28;100.00
19890;BME280;10107;51.198;6.824;2023-03-01T05:20:29;-21236.59;;;-3.22;100.00
19890;BME280;10107;51.198;6.824;2023-03-01T05:24:31;-21239.44;;;-3.11;100.00
19890;BME280;10107;51.198;6.824;2023-03-01T05:28:34;-21242.41;;;-3.00;100.00
19890;BME280;10107;51.198;6.824;2023-03-01T05:32:37;-21244.28;;;-2.93;100.00
19890;BME280;10107;51.198;6.824;2023-03-01T05:36:38;-21246.72;;;-2.84;100.00
19890;BME280;10107;51.198;6.824;2023-03-01T05:40:40;-21247.94;;;-2.79;100.00
19890;BME280;10107;51.198;6.824;2023-03-01T05:44:42;-21248.19;;;-2.78;100.00
19890;BME280;10107;51.198;6.824;2023-03-01T05:48:45;-21248.06;;;-2.79;100.00
19890;BME280;10107;51.198;6.824;2023-03-01T05:52:49;-21249.28;;;-2.74;100.00
19890;BME280;10107;51.198;6.824;2023-03-01T05:56:51;-21249.16;;;-2.74;100.00
19890;BME280;10107;51.198;6.824;2023-03-01T06:00:52;-21249.41;;;-2.73;100.00
19890;BME280;10107;51.198;6.824;2023-03-01T06:04:55;-21249.00;;;-2.75;100.00
19890;BME280;10107;51.198;6.824;2023-03-01T06:08:57;-21249.97;;;-2.71;100.00
19890;BME280;10107;51.198;6.824;2023-03-01T06:12:58;-21250.63;;;-2.69;100.00
19890;BME280;10107;51.198;6.824;2023-03-01T06:17:00;-21251.44;;;-2.66;100.00
19890;BME280;10107;51.198;6.824;2023-03-01T06:21:03;-21252.38;;;-2.62;99.77
19890;BME280;10107;51.198;6.824;2023-03-01T06:25:05;-21253.19;;;-2.59;99.30
19890;BME280;10107;51.198;6.824;2023-03-01T06:29:06;-21254.28;;;-2.55;98.95
19890;BME280;10107;51.198;6.824;2023-03-01T06:33:08;-21255.50;;;-2.50;98.51
19890;BME280;10107;51.198;6.824;2023-03-01T06:37:11;-21256.44;;;-2.47;98.71
19890;BME280;10107;51.198;6.824;2023-03-01T06:41:13;-21257.25;;;-2.44;98.50
19890;BME280;10107;51.198;6.824;2023-03-01T06:45:14;-21258.19;;;-2.40;98.05
19890;BME280;10107;51.198;6.824;2023-03-01T06:49:16;-21260.22;;;-2.32;96.82
19890;BME280;10107;51.198;6.824;2023-03-01T06:53:19;-21263.59;;;-2.20;96.34
19890;BME280;10107;51.198;6.824;2023-03-01T06:57:20;-21266.56;;;-2.08;94.95
19890;BME280;10107;51.198;6.824;2023-03-01T07:01:22;-21269.13;;;-1.98;94.66
19890;BME280;10107;51.198;6.824;2023-03-01T07:05:23;-21271.81;;;-1.88;94.38
19890;BME280;10107;51.198;6.824;2023-03-01T07:09:26;-21275.31;;;-1.75;91.76
19890;BME280;10107;51.198;6.824;2023-03-01T07:13:28;-21278.44;;;-1.63;91.66
19890;BME280;10107;51.198;6.824;2023-03-01T07:17:29;-21282.19;;;-1.49;89.51
19890;BME280;10107;51.198;6.824;2023-03-01T07:21:31;-21286.66;;;-1.32;89.16
19890;BME280;10107;51.198;6.824;2023-03-01T07:25:34;-21290.81;;;-1.16;88.73
19890;BME280;10107;51.198;6.824;2023-03-01T07:29:35;-21295.00;;;-1.00;88.23
19890;BME280;10107;51.198;6.824;2023-03-01T07:33:37;-21300.13;;;-0.81;86.99
19890;BME280;10107;51.198;6.824;2023-03-01T07:37:39;-21306.31;;;-0.57;84.74
19890;BME280;10107;51.198;6.824;2023-03-01T07:41:41;-21313.19;;;-0.31;84.94
19890;BME280;10107;51.198;6.824;2023-03-01T07:45:43;-21321.25;;;0.00;82.55
19890;BME280;10107;51.198;6.824;2023-03-01T07:49:45;-21330.00;;;0.33;80.75
19890;BME280;10107;51.198;6.824;2023-03-01T07:53:46;-21341.41;;;0.77;77.80
19890;BME280;10107;51.198;6.824;2023-03-01T07:57:49;-21359.00;;;1.44;76.28
19890;BME280;10107;51.198;6.824;2023-03-01T08:01:50;-21547.63;;;8.68;55.31
19890;BME280;10107;51.198;6.824;2023-03-01T08:05:52;-21737.16;;;16.04;31.52
19890;BME280;10107;51.198;6.824;2023-03-01T08:09:53;-21826.16;;;19.53;25.79
19890;BME280;10107;51.198;6.824;2023-03-01T08:13:56;-21882.03;;;21.73;22.13
19890;BME280;10107;51.198;6.824;2023-03-01T08:17:57;-21898.53;;;22.39;21.17
19890;BME280;10107;51.198;6.824;2023-03-01T08:21:59;-21847.03;;;20.35;21.65
19890;BME280;10107;51.198;6.824;2023-03-01T08:26:07;-21757.63;;;16.85;25.27
19890;BME280;10107;51.198;6.824;2023-03-01T08:30:11;-21691.00;;;14.24;28.38
19890;BME280;10107;51.198;6.824;2023-03-01T08:34:14;-21657.00;;;12.92;30.88
19890;BME280;10107;51.198;6.824;2023-03-01T08:38:15;-21630.97;;;11.91;32.71
19890;BME280;10107;51.198;6.824;2023-03-01T08:42:17;-21627.28;;;11.77;32.58
19890;BME280;10107;51.198;6.824;2023-03-01T08:46:20;-21628.47;;;11.81;33.03
19890;BME280;10107;51.198;6.824;2023-03-01T08:50:21;-21645.25;;;12.46;31.90
19890;BME280;10107;51.198;6.824;2023-03-01T08:54:24;-21662.78;;;13.15;31.00
19890;BME280;10107;51.198;6.824;2023-03-01T08:58:26;-21651.06;;;12.69;31.69
19890;BME280;10107;51.198;6.824;2023-03-01T09:02:28;-21659.09;;;13.00;31.28
19890;BME280;10107;51.198;6.824;2023-03-01T09:06:30;-21671.63;;;13.49;30.27
19890;BME280;10107;51.198;6.824;2023-03-01T09:10:33;-21690.88;;;14.24;29.29
19890;BME280;10107;51.198;6.824;2023-03-01T09:14:38;-21696.94;;;14.48;29.34
19890;BME280;10107;51.198;6.824;2023-03-01T09:18:42;-21695.34;;;14.41;28.46
19890;BME280;10107;51.198;6.824;2023-03-01T09:22:44;-21663.06;;;13.16;29.76
19890;BME280;10107;51.198;6.824;2023-03-01T09:26:45;-21658.84;;;12.99;29.71
19890;BME280;10107;51.198;6.824;2023-03-01T09:30:47;-21671.25;;;13.47;29.52
19890;BME280;10107;51.198;6.824;2023-03-01T09:34:50;-21672.44;;;13.52;28.87
19890;BME280;10107;51.198;6.824;2023-03-01T09:39:04;-21667.81;;;13.34;29.10
19890;BME280;10107;51.198;6.824;2023-03-01T09:43:08;-21684.41;;;13.99;29.14
19890;BME280;10107;51.198;6.824;2023-03-01T09:47:17;-21696.53;;;14.46;28.24
19890;BME280;10107;51.198;6.824;2023-03-01T09:51:22;-21713.91;;;15.14;27.92
19890;BME280;10107;51.198;6.824;2023-03-01T09:55:26;-21724.53;;;15.55;26.84
19890;BME280;10107;51.198;6.824;2023-03-01T09:59:32;-21719.41;;;15.35;26.65
19890;BME280;10107;51.198;6.824;2023-03-01T10:03:39;-21719.03;;;15.34;26.56
19890;BME280;10107;51.198;6.824;2023-03-01T10:07:44;-21722.97;;;15.49;26.46
19890;BME280;10107;51.198;6.824;2023-03-01T10:11:48;-21742.16;;;16.24;26.23
19890;BME280;10107;51.198;6.824;2023-03-01T10:15:52;-21744.78;;;16.34;25.11
19890;BME280;10107;51.198;6.824;2023-03-01T10:19:56;-21738.34;;;16.09;26.12
19890;BME280;10107;51.198;6.824;2023-03-01T10:24:04;-21730.19;;;15.77;25.58
19890;BME280;10107;51.198;6.824;2023-03-01T10:28:12;-21734.66;;;15.95;25.13
19890;BME280;10107;51.198;6.824;2023-03-01T10:32:17;-21728.63;;;15.71;25.00
19890;BME280;10107;51.198;6.824;2023-03-01T10:36:19;-21721.53;;;15.43;25.24
19890;BME280;10107;51.198;6.824;2023-03-01T10:40:22;-21723.75;;;15.52;26.02
19890;BME280;10107;51.198;6.824;2023-03-01T10:44:36;-21735.72;;;15.99;24.54
19890;BME280;10107;51.198;6.824;2023-03-01T10:48:39;-21742.28;;;16.24;24.89
19890;BME280;10107;51.198;6.824;2023-03-01T10:52:41;-21727.97;;;15.69;24.57
19890;BME280;10107;51.198;6.824;2023-03-01T10:56:47;-21754.47;;;16.72;24.52
19890;BME280;10107;51.198;6.824;2023-03-01T11:00:50;-21743.31;;;16.29;24.26
19890;BME280;10107;51.198;6.824;2023-03-01T11:04:59;-21757.50;;;16.84;24.24
19890;BME280;10107;51.198;6.824;2023-03-01T11:09:13;-21756.97;;;16.82;24.72
19890;BME280;10107;51.198;6.824;2023-03-01T11:13:16;-21774.66;;;17.51;23.33
19890;BME280;10107;51.198;6.824;2023-03-01T11:17:21;-21772.81;;;17.44;23.45
19890;BME280;10107;51.198;6.824;2023-03-01T11:21:24;-21766.00;;;17.17;23.54
19890;BME280;10107;51.198;6.824;2023-03-01T11:25:30;-21781.34;;;17.77;23.04
19890;BME280;10107;51.198;6.824;2023-03-01T11:29:36;-21789.44;;;18.09;22.45
19890;BME280;10107;51.198;6.824;2023-03-01T11:33:40;-21779.63;;;17.71;23.41
19890;BME280;10107;51.198;6.824;2023-03-01T11:37:44;-21784.59;;;17.90;22.51
19890;BME280;10107;51.198;6.824;2023-03-01T11:41:50;-21794.81;;;18.30;22.54
19890;BME280;10107;51.198;6.824;2023-03-01T11:46:21;-21785.13;;;17.92;22.68
19890;BME280;10107;51.198;6.824;2023-03-01T11:50:29;-21787.50;;;18.01;22.63
19890;BME280;10107;51.198;6.824;2023-03-01T11:54:40;-21792.47;;;18.21;22.59
19890;BME280;10107;51.198;6.824;2023-03-01T11:58:52;-21800.03;;;18.51;22.79
19890;BME280;10107;51.198;6.824;2023-03-01T12:03:03;-21777.81;;;17.64;23.27
19890;BME280;10107;51.198;6.824;2023-03-01T12:07:12;-21773.63;;;17.47;24.08
19890;BME280;10107;51.198;6.824;2023-03-01T12:11:28;-21775.44;;;17.54;24.46
19890;BME280;10107;51.198;6.824;2023-03-01T12:20:00;-21745.69;;;16.38;25.32
19890;BME280;10107;51.198;6.824;2023-03-01T12:28:31;-21716.66;;;15.24;26.23
19890;BME280;10107;51.198;6.824;2023-03-01T12:32:37;-21675.84;;;13.65;28.38
19890;BME280;10107;51.198;6.824;2023-03-01T12:36:45;-21627.94;;;11.79;31.19
19890;BME280;10107;51.198;6.824;2023-03-01T12:41:01;-21579.19;;;9.90;33.49
19890;BME280;10107;51.198;6.824;2023-03-01T12:45:16;-21545.38;;;8.60;35.96
19890;BME280;10107;51.198;6.824;2023-03-01T12:49:25;-21537.50;;;8.29;36.76
19890;BME280;10107;51.198;6.824;2023-03-01T12:53:30;-21527.16;;;7.89;37.94
19890;BME280;10107;51.198;6.824;2023-03-01T12:57:33;-21524.09;;;7.78;40.31
19890;BME280;10107;51.198;6.824;2023-03-01T13:01:40;-21522.09;;;7.70;40.38
19890;BME280;10107;51.198;6.824;2023-03-01T13:05:46;-21519.97;;;7.62;40.97
19890;BME280;10107;51.198;6.824;2023-03-01T13:09:54;-21514.91;;;7.42;42.71
19890;BME280;10107;51.198;6.824;2023-03-01T13:18:28;-21504.13;;;7.01;42.18
19890;BME280;10107;51.198;6.824;2023-03-01T13:22:31;-21499.31;;;6.82;42.66
19890;BME280;10107;51.198;6.824;2023-03-01T13:26:39;-21496.66;;;6.72;43.34
19890;BME280;10107;51.198;6.824;2023-03-01T13:31:01;-21497.59;;;6.76;42.99
19890;BME280;10107;51.198;6.824;2023-03-01T13:35:08;-21496.25;;;6.70;42.81
19890;BME280;10107;51.198;6.824;2023-03-01T13:39:30;-21498.13;;;6.78;43.48
19890;BME280;10107;51.198;6.824;2023-03-01T13:43:35;-21498.25;;;6.78;43.04
19890;BME280;10107;51.198;6.824;2023-03-01T13:47:39;-21498.00;;;6.77;42.93
19890;BME280;10107;51.198;6.824;2023-03-01T13:51:40;-21496.00;;;6.69;43.82
19890;BME280;10107;51.198;6.824;2023-03-01T13:55:43;-21495.47;;;6.67;43.91
19890;BME280;10107;51.198;6.824;2023-03-01T13:59:48;-21492.66;;;6.57;44.06
19890;BME280;10107;51.198;6.824;2023-03-01T14:03:50;-21495.06;;;6.66;44.57
19890;BME280;10107;51.198;6.824;2023-03-01T14:07:51;-21492.41;;;6.56;44.30
19890;BME280;10107;51.198;6.824;2023-03-01T14:11:59;-21489.31;;;6.44;45.41
19890;BME280;10107;51.198;6.824;2023-03-01T14:16:09;-21489.72;;;6.45;46.71
19890;BME280;10107;51.198;6.824;2023-03-01T14:20:17;-21490.53;;;6.48;45.15
19890;BME280;10107;51.198;6.824;2023-03-01T14:24:20;-21490.78;;;6.49;44.69
19890;BME280;10107;51.198;6.824;2023-03-01T14:28:23;-21489.06;;;6.43;45.47
19890;BME280;10107;51.198;6.824;2023-03-01T14:32:28;-21490.13;;;6.47;45.39
19890;BME280;10107;51.198;6.824;2023-03-01T14:36:30;-21489.19;;;6.43;45.91
19890;BME280;10107;51.198;6.824;2023-03-01T14:40:33;-21487.84;;;6.38;45.96
19890;BME280;10107;51.198;6.824;2023-03-01T14:44:35;-21486.53;;;6.33;45.63
19890;BME280;10107;51.198;6.824;2023-03-01T14:48:39;-21484.94;;;6.27;45.66
19890;BME280;10107;51.198;6.824;2023-03-01T14:52:41;-21483.84;;;6.23;45.57
19890;BME280;10107;51.198;6.824;2023-03-01T14:56:44;-21482.25;;;6.17;45.41
19890;BME280;10107;51.198;6.824;2023-03-01T15:00:46;-21481.72;;;6.14;45.50
19890;BME280;10107;51.198;6.824;2023-03-01T15:04:51;-21482.53;;;6.18;46.29
19890;BME280;10107;51.198;6.824;2023-03-01T15:08:53;-21483.59;;;6.22;46.08
19890;BME280;10107;51.198;6.824;2023-03-01T15:13:09;-21484.00;;;6.23;45.44
19890;BME280;10107;51.198;6.824;2023-03-01T15:17:21;-21483.31;;;6.21;45.97
19890;BME280;10107;51.198;6.824;2023-03-01T15:21:29;-21483.06;;;6.20;45.83
19890;BME280;10107;51.198;6.824;2023-03-01T15:25:32;-21482.53;;;6.18;46.09
19890;BME280;10107;51.198;6.824;2023-03-01T15:29:34;-21482.53;;;6.18;45.37
19890;BME280;10107;51.198;6.824;2023-03-01T15:33:40;-21482.53;;;6.18;45.13
19890;BME280;10107;51.198;6.824;2023-03-01T15:37:48;-21480.94;;;6.11;44.89
19890;BME280;10107;51.198;6.824;2023-03-01T15:41:50;-21480.38;;;6.09;44.71
19890;BME280;10107;51.198;6.824;2023-03-01T15:45:55;-21480.13;;;6.08;44.87
19890;BME280;10107;51.198;6.824;2023-03-01T15:49:58;-21478.25;;;6.01;44.84
19890;BME280;10107;51.198;6.824;2023-03-01T15:54:03;-21477.47;;;5.98;45.32
19890;BME280;10107;51.198;6.824;2023-03-01T15:58:09;-21477.06;;;5.97;45.14
19890;BME280;10107;51.198;6.824;2023-03-01T16:02:11;-21475.31;;;5.90;45.40
19890;BME280;10107;51.198;6.824;2023-03-01T16:06:13;-21473.72;;;5.84;45.38
19890;BME280;10107;51.198;6.824;2023-03-01T16:10:16;-21471.97;;;5.77;45.06
19890;BME280;10107;51.198;6.824;2023-03-01T16:14:18;-21469.97;;;5.69;45.13
19890;BME280;10107;51.198;6.824;2023-03-01T16:18:20;-21468.25;;;5.63;45.69
19890;BME280;10107;51.198;6.824;2023-03-01T16:22:21;-21466.91;;;5.58;45.72
19890;BME280;10107;51.198;6.824;2023-03-01T16:26:26;-21464.91;;;5.50;45.32
19890;BME280;10107;51.198;6.824;2023-03-01T16:30:27;-21462.78;;;5.42;46.44
19890;BME280;10107;51.198;6.824;2023-03-01T16:34:29;-21459.97;;;5.31;46.38
19890;BME280;10107;51.198;6.824;2023-03-01T16:38:31;-21457.56;;;5.22;46.80
19890;BME280;10107;51.198;6.824;2023-03-01T16:42:34;-21455.16;;;5.12;46.68
19890;BME280;10107;51.198;6.824;2023-03-01T16:46:41;-21453.16;;;5.05;46.67
19890;BME280;10107;51.198;6.824;2023-03-01T16:50:43;-21449.41;;;4.90;47.16
19890;BME280;10107;51.198;6.824;2023-03-01T16:54:45;-21447.28;;;4.82;47.18
19890;BME280;10107;51.198;6.824;2023-03-01T16:58:48;-21443.81;;;4.69;48.77
19890;BME280;10107;51.198;6.824;2023-03-01T17:02:49;-21441.00;;;4.58;48.76
19890;BME280;10107;51.198;6.824;2023-03-01T17:06:51;-21436.06;;;4.39;49.72
19890;BME280;10107;51.198;6.824;2023-03-01T17:10:53;-21433.91;;;4.31;49.52
19890;BME280;10107;51.198;6.824;2023-03-01T17:14:56;-21433.25;;;4.28;50.35
19890;BME280;10107;51.198;6.824;2023-03-01T17:18:57;-21430.69;;;4.19;50.48
19890;BME280;10107;51.198;6.824;2023-03-01T17:22:59;-21426.56;;;4.03;51.30
19890;BME280;10107;51.198;6.824;2023-03-01T17:27:00;-21423.47;;;3.91;52.13
19890;BME280;10107;51.198;6.824;2023-03-01T17:31:04;-21421.22;;;3.82;51.83
19890;BME280;10107;51.198;6.824;2023-03-01T17:35:06;-21419.19;;;3.74;52.34
19890;BME280;10107;51.198;6.824;2023-03-01T17:39:08;-21418.94;;;3.73;52.99
19890;BME280;10107;51.198;6.824;2023-03-01T17:43:09;-21417.47;;;3.68;52.78
19890;BME280;10107;51.198;6.824;2023-03-01T17:47:12;-21415.59;;;3.61;53.27
19890;BME280;10107;51.198;6.824;2023-03-01T17:51:14;-21412.38;;;3.48;54.02
19890;BME280;10107;51.198;6.824;2023-03-01T17:55:15;-21411.31;;;3.44;54.16
19890;BME280;10107;51.198;6.824;2023-03-01T17:59:17;-21409.97;;;3.39;55.25
19890;BME280;10107;51.198;6.824;2023-03-01T18:03:20;-21408.75;;;3.34;55.18
19890;BME280;10107;51.198;6.824;2023-03-01T18:07:22;-21408.22;;;3.32;54.82
19890;BME280;10107;51.198;6.824;2023-03-01T18:11:25;-21405.13;;;3.21;56.16
19890;BME280;10107;51.198;6.824;2023-03-01T18:15:27;-21402.72;;;3.11;56.45
19890;BME280;10107;51.198;6.824;2023-03-01T18:19:30;-21400.59;;;3.03;57.33
19890;BME280;10107;51.198;6.824;2023-03-01T18:23:32;-21401.41;;;3.06;57.20
19890;BME280;10107;51.198;6.824;2023-03-01T18:27:33;-21399.66;;;3.00;57.53
19890;BME280;10107;51.198;6.824;2023-03-01T18:31:36;-21396.97;;;2.89;58.43
19890;BME280;10107;51.198;6.824;2023-03-01T18:35:38;-21396.84;;;2.89;57.68
19890;BME280;10107;51.198;6.824;2023-03-01T18:39:40;-21398.03;;;2.93;57.78
19890;BME280;10107;51.198;6.824;2023-03-01T18:43:41;-21400.44;;;3.03;56.44
19890;BME280;10107;51.198;6.824;2023-03-01T18:47:43;-21400.72;;;3.04;56.40
19890;BME280;10107;51.198;6.824;2023-03-01T18:51:46;-21399.78;;;3.00;56.92
19890;BME280;10107;51.198;6.824;2023-03-01T18:55:47;-21399.53;;;2.99;56.91
19890;BME280;10107;51.198;6.824;2023-03-01T18:59:49;-21398.97;;;2.97;56.88
19890;BME280;10107;51.198;6.824;2023-03-01T19:03:51;-21398.84;;;2.96;56.11
19890;BME280;10107;51.198;6.824;2023-03-01T19:07:54;-21396.56;;;2.88;56.64
19890;BME280;10107;51.198;6.824;2023-03-01T19:11:55;-21393.91;;;2.77;56.77
19890;BME280;10107;51.198;6.824;2023-03-01T19:16:04;-21393.09;;;2.74;57.03
19890;BME280;10107;51.198;6.824;2023-03-01T19:20:07;-21393.91;;;2.77;57.38
19890;BME280;10107;51.198;6.824;2023-03-01T19:24:10;-21392.16;;;2.71;56.98
19890;BME280;10107;51.198;6.824;2023-03-01T19:28:12;-21389.34;;;2.60;58.04
19890;BME280;10107;51.198;6.824;2023-03-01T19:32:14;-21386.53;;;2.49;58.68
19890;BME280;10107;51.198;6.824;2023-03-01T19:36:16;-21385.44;;;2.45;58.55
19890;BME280;10107;51.198;6.824;2023-03-01T19:40:19;-21384.38;;;2.41;58.67
19890;BME280;10107;51.198;6.824;2023-03-01T19:44:20;-21383.84;;;2.39;58.88
19890;BME280;10107;51.198;6.824;2023-03-01T19:48:24;-21382.75;;;2.35;59.05
19890;BME280;10107;51.198;6.824;2023-03-01T19:52:25;-21381.41;;;2.30;59.87
19890;BME280;10107;51.198;6.824;2023-03-01T19:56:28;-21380.88;;;2.28;60.39
19890;BME280;10107;51.198;6.824;2023-03-01T20:00:30;-21379.53;;;2.23;60.40
19890;BME280;10107;51.198;6.824;2023-03-01T20:04:32;-21378.75;;;2.20;60.92
19890;BME280;10107;51.198;6.824;2023-03-01T20:08:33;-21376.47;;;2.11;61.90
19890;BME280;10107;51.198;6.824;2023-03-01T20:12:36;-21375.38;;;2.07;61.69
19890;BME280;10107;51.198;6.824;2023-03-01T20:16:38;-21373.38;;;1.99;62.94
19890;BME280;10107;51.198;6.824;2023-03-01T20:20:39;-21372.31;;;1.95;63.08
19890;BME280;10107;51.198;6.824;2023-03-01T20:24:41;-21370.69;;;1.89;63.74
19890;BME280;10107;51.198;6.824;2023-03-01T20:28:44;-21369.34;;;1.84;64.73
19890;BME280;10107;51.198;6.824;2023-03-01T20:32:46;-21366.94;;;1.74;64.77
19890;BME280;10107;51.198;6.824;2023-03-01T20:36:48;-21365.06;;;1.67;66.08
19890;BME280;10107;51.198;6.824;2023-03-01T20:40:49;-21361.84;;;1.55;67.03
19890;BME280;10107;51.198;6.824;2023-03-01T20:44:52;-21359.00;;;1.44;67.45
19890;BME280;10107;51.198;6.824;2023-03-01T20:48:54;-21356.34;;;1.34;68.72
19890;BME280;10107;51.198;6.824;2023-03-01T20:52:56;-21353.78;;;1.24;69.19
19890;BME280;10107;51.198;6.824;2023-03-01T20:56:57;-21351.22;;;1.14;70.35
19890;BME280;10107;51.198;6.824;2023-03-01T21:01:00;-21348.13;;;1.03;71.17
19890;BME280;10107;51.198;6.824;2023-03-01T21:05:03;-21346.25;;;0.95;71.89
19890;BME280;10107;51.198;6.824;2023-03-01T21:09:04;-21345.72;;;0.93;72.00
19890;BME280;10107;51.198;6.824;2023-03-01T21:13:06;-21344.50;;;0.89;72.53
19890;BME280;10107;51.198;6.824;2023-03-01T21:17:11;-21344.50;;;0.89;74.08
19890;BME280;10107;51.198;6.824;2023-03-01T21:21:14;-21346.53;;;0.96;73.59
19890;BME280;10107;51.198;6.824;2023-03-01T21:25:16;-21347.72;;;1.01;73.00
19890;BME280;10107;51.198;6.824;2023-03-01T21:29:18;-21348.94;;;1.06;73.07
19890;BME280;10107;51.198;6.824;2023-03-01T21:33:20;-21347.59;;;1.01;73.22